createdAt,value
2022-08-22T00:02:03.117Z,18.83
2022-08-22T00:02:43.622Z,20.34
2022-08-22T00:03:16.022Z,19.11
2022-08-22T00:04:38.325Z,18.81
2022-08-22T00:07:26.674Z,18.77
2022-08-22T00:10:10.202Z,18.79
2022-08-22T00:12:55.270Z,18.77
2022-08-22T00:15:43.134Z,18.74
2022-08-22T00:18:20.656Z,18.66
2022-08-22T00:21:02.661Z,18.66
2022-08-22T00:23:40.721Z,18.62
2022-08-22T00:26:45.285Z,18.61
2022-08-22T00:29:22.349Z,18.60
2022-08-22T00:32:06.657Z,18.61
2022-08-22T00:34:42.843Z,18.62
2022-08-22T00:37:26.147Z,18.60
2022-08-22T00:40:12.100Z,18.57
2022-08-22T00:42:44.458Z,18.55
2022-08-22T00:45:43.197Z,18.58
2022-08-22T00:48:21.635Z,18.56
2022-08-22T00:51:09.628Z,18.55
2022-08-22T00:53:48.698Z,18.53
2022-08-22T00:56:57.012Z,18.53
2022-08-22T00:59:51.452Z,18.53
2022-08-22T01:02:33.741Z,18.51
2022-08-22T01:05:34.757Z,18.51
2022-08-22T01:08:41.792Z,18.50
2022-08-22T01:11:30.266Z,18.43
2022-08-22T01:14:17.909Z,18.40
2022-08-22T01:17:01.348Z,18.41
2022-08-22T01:19:50.086Z,18.43
2022-08-22T01:22:28.469Z,18.39
2022-08-22T01:25:25.872Z,18.36
2022-08-22T01:28:20.258Z,18.25
2022-08-22T01:31:31.847Z,18.20
2022-08-22T01:34:20.008Z,18.20
2022-08-22T01:37:07.753Z,18.18
2022-08-22T01:40:30.231Z,18.14
2022-08-22T01:43:05.389Z,18.14
2022-08-22T01:45:44.511Z,18.16
2022-08-22T01:48:26.884Z,18.18
2022-08-22T01:51:06.183Z,18.14
2022-08-22T01:54:16.855Z,18.10
2022-08-22T01:56:48.581Z,18.10
2022-08-22T01:59:34.044Z,18.09
2022-08-22T02:02:13.582Z,18.13
2022-08-22T02:04:54.839Z,18.12
2022-08-22T02:07:31.922Z,18.08
2022-08-22T02:10:21.126Z,17.98
2022-08-22T02:13:08.966Z,17.98
2022-08-22T02:15:50.397Z,18.01
2022-08-22T02:18:35.151Z,18.01
2022-08-22T02:21:45.086Z,17.97
2022-08-22T02:24:26.515Z,17.90
2022-08-22T02:27:27.122Z,17.91
2022-08-22T02:30:12.284Z,17.91
2022-08-22T02:32:44.512Z,17.95
2022-08-22T02:35:17.000Z,17.95
2022-08-22T02:37:56.927Z,17.98
2022-08-22T02:40:41.927Z,18.02
2022-08-22T02:43:33.248Z,18.01
2022-08-22T02:46:07.497Z,18.02
2022-08-22T02:48:58.549Z,18.02
2022-08-22T02:51:50.007Z,18.03
2022-08-22T02:54:46.579Z,18.04
2022-08-22T02:57:41.782Z,18.03
2022-08-22T03:00:29.643Z,18.04
2022-08-22T03:03:02.275Z,18.04
2022-08-22T03:06:07.626Z,18.06
2022-08-22T03:09:15.531Z,18.05
2022-08-22T03:11:50.075Z,18.07
2022-08-22T03:14:32.324Z,18.09
2022-08-22T03:17:13.029Z,18.09
2022-08-22T03:20:05.296Z,18.07
2022-08-22T03:23:00.028Z,18.07
2022-08-22T03:25:55.864Z,18.05
2022-08-22T03:28:36.860Z,18.02
2022-08-22T03:31:20.904Z,18.01
2022-08-22T03:34:30.411Z,18.03
2022-08-22T03:37:07.454Z,18.02
2022-08-22T03:40:09.614Z,18.02
2022-08-22T03:43:15.731Z,18.01
2022-08-22T03:46:25.468Z,17.99
2022-08-22T03:49:11.482Z,18.00
2022-08-22T03:51:55.779Z,18.02
2022-08-22T03:54:45.627Z,18.06
2022-08-22T03:57:23.871Z,18.09
2022-08-22T03:59:59.314Z,18.13
2022-08-22T04:03:04.954Z,18.14
2022-08-22T04:06:12.691Z,18.14
2022-08-22T04:08:45.969Z,18.15
2022-08-22T04:11:53.540Z,18.12
2022-08-22T04:14:48.820Z,18.12
2022-08-22T04:17:42.039Z,18.14
2022-08-22T04:20:52.864Z,18.18
2022-08-22T04:23:43.414Z,18.25
2022-08-22T04:26:23.912Z,18.25
2022-08-22T04:29:05.772Z,18.26
2022-08-22T04:31:56.884Z,18.30
2022-08-22T04:34:58.836Z,18.26
2022-08-22T04:37:38.039Z,18.23
2022-08-22T04:40:42.880Z,18.20
2022-08-22T04:43:20.599Z,18.19
2022-08-22T04:45:58.930Z,18.18
2022-08-22T04:48:28.231Z,18.20
2022-08-22T04:51:30.815Z,18.19
2022-08-22T04:54:12.342Z,18.21
2022-08-22T04:57:00.593Z,18.18
2022-08-22T04:59:33.493Z,18.16
2022-08-22T05:02:07.313Z,18.19
2022-08-22T05:04:54.755Z,18.24
2022-08-22T05:07:38.026Z,18.28
2022-08-22T05:10:21.450Z,18.31
2022-08-22T05:12:57.016Z,18.33
2022-08-22T05:15:33.362Z,18.35
2022-08-22T05:18:09.589Z,18.35
2022-08-22T05:20:43.136Z,18.35
2022-08-22T05:23:21.718Z,18.37
2022-08-22T05:25:55.060Z,18.37
2022-08-22T05:28:38.904Z,18.37
2022-08-22T05:31:13.072Z,18.40
2022-08-22T05:33:48.354Z,18.43
2022-08-22T05:36:30.620Z,18.41
2022-08-22T05:39:04.049Z,18.39
2022-08-22T05:41:38.797Z,18.45
2022-08-22T05:44:18.726Z,18.52
2022-08-22T05:46:54.195Z,18.59
2022-08-22T05:49:34.457Z,18.63
2022-08-22T05:52:11.516Z,18.67
2022-08-22T05:54:54.276Z,18.71
2022-08-22T05:57:33.091Z,18.69
2022-08-22T06:00:20.347Z,18.57
2022-08-22T06:03:08.357Z,18.67
2022-08-22T06:05:45.385Z,18.67
2022-08-22T06:08:23.833Z,18.71
2022-08-22T06:11:05.199Z,18.76
2022-08-22T06:13:44.379Z,18.84
2022-08-22T06:16:31.299Z,18.91
2022-08-22T06:19:01.284Z,18.98
2022-08-22T06:21:38.595Z,18.99
2022-08-22T06:24:15.847Z,19.10
2022-08-22T06:26:49.891Z,19.16
2022-08-22T06:29:37.971Z,19.22
2022-08-22T06:32:15.974Z,19.22
2022-08-22T06:34:49.041Z,19.27
2022-08-22T06:37:27.310Z,19.34
2022-08-22T06:39:59.222Z,19.40
2022-08-22T06:42:34.228Z,19.49
2022-08-22T06:45:08.286Z,19.50
2022-08-22T06:48:00.642Z,19.57
2022-08-22T06:50:36.248Z,19.63
2022-08-22T06:53:18.076Z,19.64
2022-08-22T06:55:54.656Z,19.68
2022-08-22T06:58:33.961Z,19.75
2022-08-22T07:01:12.261Z,19.84
2022-08-22T07:03:52.902Z,19.93
2022-08-22T07:06:32.275Z,20.03
2022-08-22T07:09:05.638Z,20.19
2022-08-22T07:11:42.453Z,20.30
2022-08-22T07:14:14.958Z,20.32
2022-08-22T07:16:49.931Z,20.42
2022-08-22T07:19:36.056Z,20.53
2022-08-22T07:22:24.521Z,20.59
2022-08-22T07:24:57.613Z,20.65
2022-08-22T07:28:00.300Z,20.69
2022-08-22T07:30:42.413Z,20.71
2022-08-22T07:33:27.286Z,20.78
2022-08-22T07:36:08.621Z,20.84
2022-08-22T07:38:47.023Z,20.81
2022-08-22T07:41:23.681Z,20.84
2022-08-22T07:44:19.031Z,20.93
2022-08-22T07:47:15.712Z,21.00
2022-08-22T07:49:56.816Z,20.97
2022-08-22T07:52:27.859Z,21.03
2022-08-22T07:55:19.877Z,21.23
2022-08-22T07:57:56.771Z,21.38
2022-08-22T08:00:29.018Z,21.41
2022-08-22T08:03:03.935Z,21.47
2022-08-22T08:05:35.974Z,21.52
2022-08-22T08:08:15.713Z,21.61
2022-08-22T08:10:45.409Z,21.75
2022-08-22T08:13:17.467Z,21.78
2022-08-22T08:15:48.178Z,21.81
2022-08-22T08:18:22.117Z,21.93
2022-08-22T08:21:02.152Z,21.97
2022-08-22T08:23:39.556Z,22.08
2022-08-22T08:26:19.962Z,22.17
2022-08-22T08:28:50.367Z,22.31
2022-08-22T08:31:26.868Z,22.48
2022-08-22T08:34:03.348Z,22.68
2022-08-22T08:36:41.627Z,22.76
2022-08-22T08:39:23.778Z,22.82
2022-08-22T08:42:20.857Z,22.87
2022-08-22T08:45:25.064Z,22.86
2022-08-22T08:48:01.598Z,22.99
2022-08-22T08:51:12.418Z,23.22
2022-08-22T08:53:51.098Z,23.29
2022-08-22T08:56:48.703Z,23.36
2022-08-22T08:59:52.125Z,23.43
2022-08-22T09:02:59.048Z,23.58
2022-08-22T09:05:48.006Z,23.65
2022-08-22T09:08:35.943Z,23.66
2022-08-22T09:11:31.669Z,23.72
2022-08-22T09:14:27.188Z,24.02
2022-08-22T09:17:35.665Z,24.10
2022-08-22T09:20:49.760Z,24.21
2022-08-22T09:23:56.638Z,24.31
2022-08-22T09:26:36.089Z,24.39
2022-08-22T09:29:24.839Z,24.40
2022-08-22T09:32:29.156Z,24.37
2022-08-22T09:35:09.692Z,24.44
2022-08-22T09:38:00.811Z,24.48
2022-08-22T09:40:30.416Z,24.38
2022-08-22T09:43:11.026Z,24.46
2022-08-22T09:46:20.255Z,24.43
2022-08-22T09:49:16.439Z,24.49
2022-08-22T09:52:15.618Z,24.52
2022-08-22T09:55:16.307Z,24.58
2022-08-22T09:58:03.902Z,24.72
2022-08-22T10:00:57.963Z,24.80
2022-08-22T10:03:49.648Z,24.89
2022-08-22T10:06:27.976Z,25.09
2022-08-22T10:09:09.060Z,25.18
2022-08-22T10:12:03.225Z,25.33
2022-08-22T10:14:40.617Z,25.39
2022-08-22T10:17:34.120Z,25.45
2022-08-22T10:20:27.742Z,25.38
2022-08-22T10:23:21.114Z,25.40
2022-08-22T10:26:00.686Z,25.47
2022-08-22T10:28:44.206Z,25.59
2022-08-22T10:31:59.387Z,25.80
2022-08-22T10:34:41.501Z,25.97
2022-08-22T10:37:18.663Z,26.15
2022-08-22T10:40:32.110Z,26.39
2022-08-22T10:43:08.490Z,26.55
2022-08-22T10:45:42.870Z,26.58
2022-08-22T10:48:12.144Z,26.48
2022-08-22T10:50:51.923Z,26.64
2022-08-22T10:53:54.844Z,26.73
2022-08-22T10:56:29.936Z,26.76
2022-08-22T10:59:22.836Z,26.74
2022-08-22T11:02:30.500Z,26.77
2022-08-22T11:05:09.595Z,26.78
2022-08-22T11:08:09.989Z,26.76
2022-08-22T11:11:11.096Z,26.80
2022-08-22T11:14:13.079Z,27.01
2022-08-22T11:16:58.214Z,27.27
2022-08-22T11:19:49.833Z,27.65
2022-08-22T11:22:30.402Z,27.94
2022-08-22T11:25:15.366Z,27.88
2022-08-22T11:28:16.863Z,27.90
2022-08-22T11:31:16.319Z,27.75
2022-08-22T11:34:15.041Z,27.53
2022-08-22T11:37:11.077Z,27.59
2022-08-22T11:40:04.069Z,27.80
2022-08-22T11:42:33.374Z,28.07
2022-08-22T11:45:07.655Z,28.20
2022-08-22T11:47:48.547Z,28.23
2022-08-22T11:50:23.009Z,28.41
2022-08-22T11:53:30.557Z,28.54
2022-08-22T11:56:24.418Z,28.60
2022-08-22T11:59:15.117Z,28.82
2022-08-22T12:01:52.707Z,28.94
2022-08-22T12:04:56.368Z,29.10
2022-08-22T12:07:29.224Z,29.23
2022-08-22T12:10:19.812Z,29.29
2022-08-22T12:13:01.245Z,29.30
2022-08-22T12:16:20.231Z,28.99
2022-08-22T12:19:15.539Z,28.74
2022-08-22T12:21:50.884Z,28.66
2022-08-22T12:24:26.448Z,28.76
2022-08-22T12:27:18.305Z,28.99
2022-08-22T12:30:45.154Z,29.13
2022-08-22T12:33:43.602Z,29.22
2022-08-22T12:36:26.179Z,29.31
2022-08-22T12:39:27.800Z,29.30
2022-08-22T12:42:25.118Z,29.01
2022-08-22T12:45:16.767Z,29.03
2022-08-22T12:47:56.396Z,29.10
2022-08-22T12:50:41.065Z,29.05
2022-08-22T12:53:46.692Z,28.97
2022-08-22T12:56:35.443Z,28.92
2022-08-22T12:59:33.818Z,28.91
2022-08-22T13:02:16.707Z,28.98
2022-08-22T13:05:01.322Z,28.96
2022-08-22T13:07:39.135Z,29.00
2022-08-22T13:10:18.623Z,29.05
2022-08-22T13:12:52.723Z,29.15
2022-08-22T13:15:38.756Z,29.14
2022-08-22T13:18:29.447Z,29.23
2022-08-22T13:21:03.809Z,29.39
2022-08-22T13:23:41.888Z,29.54
2022-08-22T13:26:33.781Z,29.68
2022-08-22T13:29:26.924Z,29.61
2022-08-22T13:32:03.715Z,29.80
2022-08-22T13:34:39.808Z,29.94
2022-08-22T13:37:14.655Z,29.87
2022-08-22T13:39:49.019Z,29.61
2022-08-22T13:42:30.833Z,29.38
2022-08-22T13:45:03.106Z,29.34
2022-08-22T13:47:39.493Z,29.46
2022-08-22T13:50:12.507Z,29.71
2022-08-22T13:53:07.937Z,29.96
2022-08-22T13:55:50.509Z,30.04
2022-08-22T13:58:44.196Z,29.78
2022-08-22T14:01:37.811Z,29.62
2022-08-22T14:04:28.668Z,29.50
2022-08-22T14:07:05.226Z,29.46
2022-08-22T14:09:58.477Z,29.51
2022-08-22T14:12:49.955Z,29.44
2022-08-22T14:15:46.057Z,29.23
2022-08-22T14:18:30.330Z,29.13
2022-08-22T14:21:40.959Z,28.91
2022-08-22T14:24:25.659Z,28.70
2022-08-22T14:27:10.420Z,28.42
2022-08-22T14:29:57.771Z,28.37
2022-08-22T14:32:32.246Z,28.30
2022-08-22T14:35:25.436Z,28.27
2022-08-22T14:38:27.331Z,28.28
2022-08-22T14:41:05.465Z,28.25
2022-08-22T14:43:35.052Z,28.23
2022-08-22T14:46:15.319Z,28.27
2022-08-22T14:48:50.686Z,28.34
2022-08-22T14:51:26.067Z,28.28
2022-08-22T14:53:55.999Z,28.26
2022-08-22T14:56:33.671Z,28.29
2022-08-22T14:59:07.507Z,28.24
2022-08-22T15:02:12.059Z,28.28
2022-08-22T15:04:49.136Z,28.44
2022-08-22T15:07:33.576Z,28.57
2022-08-22T15:10:25.150Z,28.65
2022-08-22T15:12:58.718Z,28.61
2022-08-22T15:15:49.347Z,28.66
2022-08-22T15:18:31.173Z,28.67
2022-08-22T15:21:13.702Z,28.78
2022-08-22T15:23:48.388Z,28.67
2022-08-22T15:26:35.648Z,28.71
2022-08-22T15:29:20.701Z,28.72
2022-08-22T15:31:54.692Z,28.61
2022-08-22T15:34:36.063Z,28.44
2022-08-22T15:37:09.807Z,28.41
2022-08-22T15:40:03.027Z,28.38
2022-08-22T15:42:43.423Z,28.33
2022-08-22T15:45:33.863Z,28.33
2022-08-22T15:48:06.538Z,28.43
2022-08-22T15:50:42.345Z,28.51
2022-08-22T15:53:14.301Z,28.55
2022-08-22T15:56:05.126Z,28.50
2022-08-22T15:58:37.311Z,28.53
2022-08-22T16:01:19.215Z,28.53
2022-08-22T16:04:07.728Z,28.48
2022-08-22T16:06:51.148Z,28.52
2022-08-22T16:09:44.848Z,28.56
2022-08-22T16:12:50.724Z,28.54
2022-08-22T16:15:55.918Z,28.60
2022-08-22T16:18:39.467Z,28.63
2022-08-22T16:21:09.045Z,28.59
2022-08-22T16:24:04.827Z,28.54
2022-08-22T16:26:34.105Z,28.58
2022-08-22T16:29:07.708Z,28.59
2022-08-22T16:31:42.894Z,28.53
2022-08-22T16:34:21.036Z,28.52
2022-08-22T16:37:05.696Z,28.55
2022-08-22T16:39:51.349Z,28.61
2022-08-22T16:42:22.414Z,28.60
2022-08-22T16:44:59.199Z,28.64
2022-08-22T16:47:36.230Z,28.56
2022-08-22T16:50:22.335Z,28.46
2022-08-22T16:53:16.126Z,28.42
2022-08-22T16:56:13.700Z,28.34
2022-08-22T16:59:09.888Z,28.38
2022-08-22T17:02:01.507Z,28.38
2022-08-22T17:04:51.606Z,28.29
2022-08-22T17:07:45.864Z,28.20
2022-08-22T17:10:27.622Z,28.12
2022-08-22T17:13:13.054Z,28.14
2022-08-22T17:16:05.905Z,28.10
2022-08-22T17:18:55.431Z,27.96
2022-08-22T17:21:33.906Z,27.88
2022-08-22T17:24:32.044Z,27.86
2022-08-22T17:27:09.359Z,27.76
2022-08-22T17:30:07.114Z,27.53
2022-08-22T17:33:00.088Z,27.56
2022-08-22T17:35:47.982Z,27.49
2022-08-22T17:38:33.572Z,27.45
2022-08-22T17:41:27.247Z,27.38
2022-08-22T17:44:13.702Z,27.31
2022-08-22T17:46:49.216Z,27.24
2022-08-22T17:49:29.463Z,27.23
2022-08-22T17:52:20.768Z,27.17
2022-08-22T17:55:19.538Z,27.16
2022-08-22T17:57:58.992Z,27.02
2022-08-22T18:00:38.659Z,26.90
2022-08-22T18:03:18.305Z,26.88
2022-08-22T18:06:06.992Z,26.77
2022-08-22T18:12:07.836Z,26.69
2022-08-22T18:14:59.019Z,26.50
2022-08-22T18:17:44.545Z,26.47
2022-08-22T18:20:28.725Z,26.36
2022-08-22T18:23:03.794Z,26.30
2022-08-22T18:25:45.769Z,26.20
2022-08-22T18:28:24.395Z,26.13
2022-08-22T18:31:02.091Z,26.08
2022-08-22T18:33:34.288Z,25.99
2022-08-22T18:36:25.176Z,25.91
2022-08-22T18:39:05.866Z,25.82
2022-08-22T18:41:57.823Z,25.73
2022-08-22T18:44:31.706Z,25.66
2022-08-22T18:47:12.492Z,25.62
2022-08-22T18:49:45.952Z,25.58
2022-08-22T18:52:23.506Z,25.53
2022-08-22T18:55:05.462Z,25.49
2022-08-22T18:57:46.541Z,25.44
2022-08-22T19:00:20.745Z,25.41
2022-08-22T19:03:16.458Z,25.38
2022-08-22T19:06:12.776Z,25.35
2022-08-22T19:09:16.197Z,25.31
2022-08-22T19:12:03.608Z,25.24
2022-08-22T19:14:50.503Z,25.18
2022-08-22T19:17:59.155Z,25.13
2022-08-22T19:20:48.108Z,25.04
2022-08-22T19:23:36.092Z,24.97
2022-08-22T19:26:23.859Z,24.93
2022-08-22T19:28:56.362Z,24.90
2022-08-22T19:31:25.699Z,24.87
2022-08-22T19:34:29.783Z,24.85
2022-08-22T19:37:32.496Z,24.81
2022-08-22T19:40:14.260Z,24.78
2022-08-22T19:42:49.868Z,24.70
2022-08-22T19:45:29.450Z,24.70
2022-08-22T19:48:13.895Z,24.67
2022-08-22T19:50:44.742Z,24.61
2022-08-22T19:53:43.373Z,24.58
2022-08-22T19:56:35.923Z,24.58
2022-08-22T19:59:20.238Z,24.57
2022-08-22T20:02:08.995Z,24.58
2022-08-22T20:05:03.645Z,24.54
2022-08-22T20:07:55.143Z,24.53
2022-08-22T20:10:30.417Z,24.44
2022-08-22T20:13:08.864Z,24.40
2022-08-22T20:16:16.650Z,24.37
2022-08-22T20:19:09.583Z,24.33
2022-08-22T20:22:03.894Z,24.29
2022-08-22T20:24:41.199Z,24.25
2022-08-22T20:27:24.736Z,24.21
2022-08-22T20:30:02.654Z,24.19
2022-08-22T20:32:34.410Z,24.17
2022-08-22T20:35:06.858Z,24.16
2022-08-22T20:38:05.181Z,24.11
2022-08-22T20:40:54.827Z,24.04
2022-08-22T20:43:33.289Z,24.02
2022-08-22T20:46:26.927Z,23.99
2022-08-22T20:48:58.559Z,23.94
2022-08-22T20:51:30.799Z,23.93
2022-08-22T20:54:09.957Z,23.91
2022-08-22T20:57:16.103Z,23.87
2022-08-22T20:59:54.817Z,23.84
2022-08-22T21:02:35.448Z,23.76
2022-08-22T21:05:28.451Z,23.74
2022-08-22T21:08:15.156Z,23.67
2022-08-22T21:10:57.567Z,23.64
2022-08-22T21:13:31.543Z,23.63
2022-08-22T21:16:15.559Z,23.60
2022-08-22T21:18:50.403Z,23.58
2022-08-22T21:21:27.455Z,23.56
2022-08-22T21:24:01.191Z,23.53
2022-08-22T21:26:48.799Z,23.48
2022-08-22T21:29:18.076Z,23.45
2022-08-22T21:31:52.642Z,23.41
2022-08-22T21:34:29.463Z,23.38
2022-08-22T21:37:31.006Z,23.36
2022-08-22T21:40:14.847Z,23.36
2022-08-22T21:42:48.460Z,23.37
2022-08-22T21:45:38.412Z,23.32
2022-08-22T21:48:43.840Z,23.29
2022-08-22T21:51:33.795Z,23.26
2022-08-22T21:54:28.272Z,23.24
2022-08-22T21:57:19.660Z,23.22
2022-08-22T21:59:59.296Z,23.20
2022-08-22T22:02:35.302Z,23.17
2022-08-22T22:05:26.763Z,23.14
2022-08-22T22:07:56.304Z,23.11
2022-08-22T22:10:25.775Z,23.09
2022-08-22T22:12:58.710Z,23.04
2022-08-22T22:15:31.935Z,22.94
2022-08-22T22:18:01.611Z,22.84
2022-08-22T22:20:31.167Z,22.75
2022-08-22T22:23:00.671Z,22.72
2022-08-22T22:25:41.125Z,22.65
2022-08-22T22:28:21.730Z,22.62
2022-08-22T22:30:53.426Z,22.58
2022-08-22T22:33:25.003Z,22.50
2022-08-22T22:35:57.236Z,22.47
2022-08-22T22:38:26.661Z,22.42
2022-08-22T22:40:55.987Z,22.35
2022-08-22T22:43:25.443Z,22.27
2022-08-22T22:45:54.819Z,22.20
2022-08-22T22:48:26.462Z,22.13
2022-08-22T22:50:57.912Z,22.08
2022-08-22T22:53:38.092Z,22.03
2022-08-22T22:56:14.584Z,21.94
2022-08-22T22:58:45.528Z,21.88
2022-08-22T23:01:18.805Z,21.83
2022-08-22T23:03:49.292Z,21.78
2022-08-22T23:06:22.026Z,21.68
2022-08-22T23:08:51.478Z,21.60
2022-08-22T23:11:25.311Z,21.50
2022-08-22T23:13:55.586Z,21.42
2022-08-22T23:16:36.501Z,21.35
2022-08-22T23:19:11.892Z,21.30
2022-08-22T23:21:42.249Z,21.27
2022-08-22T23:24:12.058Z,21.24
2022-08-22T23:26:41.936Z,21.22
2022-08-22T23:29:11.827Z,21.20
2022-08-22T23:31:52.443Z,21.11
2022-08-22T23:34:26.346Z,21.01
2022-08-22T23:36:57.439Z,20.92
2022-08-22T23:39:29.038Z,20.88
2022-08-22T23:41:59.010Z,20.88
2022-08-22T23:44:33.227Z,20.86
2022-08-22T23:47:03.331Z,20.84
2022-08-22T23:49:33.693Z,20.82
2022-08-22T23:52:03.033Z,20.83
2022-08-22T23:54:32.390Z,20.82
2022-08-22T23:57:11.805Z,20.80
2022-08-22T23:59:48.076Z,20.78
